createdAt,value
2024-03-06T00:00:32.131Z,49.76
2024-03-06T00:01:32.221Z,50.83
2024-03-06T00:02:32.269Z,49.00
2024-03-06T00:03:32.164Z,47.91
2024-03-06T00:04:32.142Z,47.24
2024-03-06T00:05:32.127Z,48.03
2024-03-06T00:06:32.161Z,46.47
2024-03-06T00:07:32.111Z,49.14
2024-03-06T00:08:32.106Z,48.30
2024-03-06T00:09:32.073Z,49.35
2024-03-06T00:10:32.167Z,46.65
2024-03-06T00:11:32.106Z,47.53
2024-03-06T00:12:32.063Z,47.56
2024-03-06T00:13:32.085Z,48.06
2024-03-06T00:14:32.038Z,49.04
2024-03-06T00:15:32.037Z,49.83
2024-03-06T00:16:32.050Z,48.69
2024-03-06T00:17:32.062Z,50.86
2024-03-06T00:18:32.025Z,49.87
2024-03-06T00:19:32.150Z,51.65
2024-03-06T00:20:31.995Z,52.43
2024-03-06T00:21:32.042Z,51.21
2024-03-06T00:22:32.098Z,51.83
2024-03-06T00:23:32.033Z,53.97
2024-03-06T00:24:31.969Z,53.65
2024-03-06T00:25:32.173Z,50.45
2024-03-06T00:26:31.949Z,52.91
2024-03-06T00:27:31.944Z,53.09
2024-03-06T00:28:32.003Z,50.82
2024-03-06T00:29:33.217Z,47.70
2024-03-06T00:30:31.960Z,51.67
2024-03-06T00:31:31.999Z,50.66
2024-03-06T00:32:31.921Z,49.49
2024-03-06T00:33:31.908Z,51.64
2024-03-06T00:34:31.911Z,55.24
2024-03-06T00:35:31.925Z,53.18
2024-03-06T00:36:31.910Z,52.83
2024-03-06T00:37:31.947Z,54.75
2024-03-06T00:38:32.006Z,50.98
2024-03-06T00:39:31.860Z,52.40
2024-03-06T00:40:31.917Z,52.06
2024-03-06T00:41:31.855Z,50.73
2024-03-06T00:42:31.876Z,52.36
2024-03-06T00:43:32.104Z,50.36
2024-03-06T00:44:31.829Z,48.78
2024-03-06T00:45:31.880Z,50.19
2024-03-06T00:46:31.873Z,51.53
2024-03-06T00:47:31.885Z,50.99
2024-03-06T00:48:31.813Z,50.70
2024-03-06T00:49:32.018Z,52.41
2024-03-06T00:50:31.798Z,53.96
2024-03-06T00:51:37.482Z,54.73
2024-03-06T00:52:32.841Z,51.57
2024-03-06T00:53:31.773Z,51.06
2024-03-06T00:54:31.770Z,50.93
2024-03-06T00:55:31.816Z,52.30
2024-03-06T00:56:31.755Z,55.54
2024-03-06T00:57:31.788Z,55.19
2024-03-06T00:58:31.776Z,51.05
2024-03-06T00:59:31.745Z,50.17
2024-03-06T01:00:31.730Z,49.80
2024-03-06T01:01:31.838Z,51.05
2024-03-06T01:02:31.769Z,48.12
2024-03-06T01:03:31.719Z,50.99
2024-03-06T01:04:31.760Z,51.60
2024-03-06T01:05:31.706Z,51.73
2024-03-06T01:06:31.713Z,51.15
2024-03-06T01:07:31.739Z,52.18
2024-03-06T01:08:31.709Z,50.26
2024-03-06T01:09:31.701Z,51.38
2024-03-06T01:10:31.687Z,53.12
2024-03-06T01:11:31.659Z,54.81
2024-03-06T01:12:31.647Z,50.90
2024-03-06T01:13:31.650Z,49.68
2024-03-06T01:14:31.665Z,49.09
2024-03-06T01:15:31.703Z,50.07
2024-03-06T01:16:31.678Z,51.98
2024-03-06T01:17:38.770Z,56.42
2024-03-06T01:18:31.607Z,50.97
2024-03-06T01:19:31.623Z,50.09
2024-03-06T01:20:31.604Z,49.62
2024-03-06T01:21:31.578Z,49.13
2024-03-06T01:22:31.606Z,51.10
2024-03-06T01:23:31.595Z,51.61
2024-03-06T01:24:31.584Z,50.00
2024-03-06T01:25:31.584Z,48.61
2024-03-06T01:26:31.546Z,48.86
2024-03-06T01:27:31.553Z,49.11
2024-03-06T01:28:31.574Z,47.70
2024-03-06T01:29:31.536Z,47.00
2024-03-06T01:30:31.546Z,49.74
2024-03-06T01:31:31.712Z,49.95
2024-03-06T01:32:31.597Z,47.91
2024-03-06T01:33:31.596Z,47.76
2024-03-06T01:34:31.521Z,50.22
2024-03-06T01:35:31.507Z,47.97
2024-03-06T01:36:31.475Z,46.86
2024-03-06T01:37:31.489Z,47.10
2024-03-06T01:38:31.476Z,49.29
2024-03-06T01:39:31.478Z,50.01
2024-03-06T01:40:31.590Z,48.92
2024-03-06T01:41:31.446Z,48.79
2024-03-06T01:42:31.436Z,48.16
2024-03-06T01:43:31.460Z,49.08
2024-03-06T01:44:31.423Z,48.05
2024-03-06T01:45:31.448Z,48.67
2024-03-06T01:46:31.434Z,48.80
2024-03-06T01:47:31.425Z,48.92
2024-03-06T01:48:31.406Z,49.49
2024-03-06T01:49:36.984Z,49.78
2024-03-06T01:50:32.447Z,50.17
2024-03-06T01:51:31.384Z,48.38
2024-03-06T01:52:31.403Z,48.73
2024-03-06T01:53:31.369Z,46.82
2024-03-06T01:54:31.378Z,47.60
2024-03-06T01:55:31.422Z,48.22
2024-03-06T01:56:31.360Z,47.67
2024-03-06T01:57:31.345Z,49.47
2024-03-06T01:58:31.410Z,49.29
2024-03-06T01:59:36.294Z,48.04
2024-03-06T02:00:32.353Z,50.21
2024-03-06T02:01:32.131Z,50.43
2024-03-06T02:02:31.339Z,52.23
2024-03-06T02:03:31.299Z,49.93
2024-03-06T02:04:31.331Z,51.31
2024-03-06T02:05:31.306Z,50.30
2024-03-06T02:06:31.283Z,52.10
2024-03-06T02:07:31.292Z,49.47
2024-03-06T02:08:31.267Z,50.02
2024-03-06T02:09:31.371Z,49.86
2024-03-06T02:10:31.367Z,48.09
2024-03-06T02:11:31.272Z,49.56
2024-03-06T02:12:31.352Z,49.61
2024-03-06T02:13:31.310Z,48.61
2024-03-06T02:14:31.237Z,48.48
2024-03-06T02:15:31.255Z,49.16
2024-03-06T02:16:31.235Z,48.82
2024-03-06T02:17:31.251Z,49.60
2024-03-06T02:18:31.237Z,49.54
2024-03-06T02:19:31.249Z,49.27
2024-03-06T02:20:31.203Z,49.59
2024-03-06T02:21:31.198Z,47.66
2024-03-06T02:22:31.201Z,48.10
2024-03-06T02:23:31.165Z,49.05
2024-03-06T02:24:31.164Z,48.01
2024-03-06T02:25:31.287Z,48.76
2024-03-06T02:26:31.147Z,49.56
2024-03-06T02:27:31.165Z,48.70
2024-03-06T02:28:31.178Z,48.92
2024-03-06T02:29:31.124Z,49.03
2024-03-06T02:30:31.139Z,48.20
2024-03-06T02:31:31.156Z,49.28
2024-03-06T02:32:31.113Z,47.40
2024-03-06T02:33:31.090Z,47.61
2024-03-06T02:34:31.416Z,48.04
2024-03-06T02:35:31.108Z,47.64
2024-03-06T02:36:31.069Z,47.34
2024-03-06T02:37:31.138Z,48.83
2024-03-06T02:38:31.061Z,49.69
2024-03-06T02:39:31.055Z,49.34
2024-03-06T02:40:31.191Z,49.10
2024-03-06T02:41:31.055Z,47.81
2024-03-06T02:42:31.038Z,47.45
2024-03-06T02:43:31.179Z,48.22
2024-03-06T02:44:31.015Z,49.61
2024-03-06T02:45:31.352Z,50.42
2024-03-06T02:46:31.187Z,48.61
2024-03-06T02:47:31.052Z,49.55
2024-03-06T02:48:31.004Z,48.28
2024-03-06T02:49:31.157Z,47.83
2024-03-06T02:50:30.997Z,48.35
2024-03-06T02:51:31.008Z,51.02
2024-03-06T02:52:31.148Z,48.42
2024-03-06T02:53:31.022Z,47.96
2024-03-06T02:54:30.951Z,49.88
2024-03-06T02:55:30.969Z,48.52
2024-03-06T02:56:30.997Z,49.39
2024-03-06T02:57:30.929Z,46.92
2024-03-06T02:58:31.108Z,48.18
2024-03-06T02:59:30.936Z,47.65
2024-03-06T03:00:30.972Z,47.24
2024-03-06T03:01:30.944Z,49.16
2024-03-06T03:02:30.894Z,48.81
2024-03-06T03:03:30.884Z,48.05
2024-03-06T03:04:31.046Z,49.38
2024-03-06T03:05:30.937Z,50.03
2024-03-06T03:06:30.881Z,49.46
2024-03-06T03:07:30.867Z,48.92
2024-03-06T03:08:30.850Z,49.78
2024-03-06T03:09:30.858Z,56.46
2024-03-06T03:10:30.866Z,49.23
2024-03-06T03:11:30.835Z,49.18
2024-03-06T03:12:30.832Z,49.10
2024-03-06T03:13:30.823Z,48.15
2024-03-06T03:14:30.822Z,51.05
2024-03-06T03:15:30.853Z,49.49
2024-03-06T03:16:30.819Z,50.02
2024-03-06T03:17:30.846Z,49.45
2024-03-06T03:18:30.778Z,48.89
2024-03-06T03:19:30.779Z,50.75
2024-03-06T03:20:30.811Z,51.36
2024-03-06T03:21:30.770Z,57.29
2024-03-06T03:22:30.792Z,49.61
2024-03-06T03:23:30.756Z,49.20
2024-03-06T03:24:30.750Z,49.21
2024-03-06T03:25:30.799Z,50.69
2024-03-06T03:26:30.758Z,49.25
2024-03-06T03:27:30.729Z,49.62
2024-03-06T03:28:30.717Z,49.03
2024-03-06T03:29:30.717Z,49.70
2024-03-06T03:30:30.727Z,48.89
2024-03-06T03:31:30.741Z,47.98
2024-03-06T03:32:30.771Z,47.21
2024-03-06T03:33:30.694Z,48.25
2024-03-06T03:34:30.676Z,48.16
2024-03-06T03:35:30.703Z,49.28
2024-03-06T03:36:30.696Z,49.34
2024-03-06T03:37:30.675Z,49.36
2024-03-06T03:38:30.646Z,50.25
2024-03-06T03:39:30.650Z,48.92
2024-03-06T03:40:30.657Z,50.32
2024-03-06T03:41:30.653Z,49.21
2024-03-06T03:42:30.619Z,48.00
2024-03-06T03:43:30.644Z,47.58
2024-03-06T03:44:30.613Z,50.13
2024-03-06T03:45:30.735Z,49.60
2024-03-06T03:46:30.602Z,48.69
2024-03-06T03:47:30.683Z,49.60
2024-03-06T03:48:30.582Z,49.74
2024-03-06T03:49:30.576Z,49.67
2024-03-06T03:50:30.747Z,50.96
2024-03-06T03:51:30.564Z,49.50
2024-03-06T03:52:30.553Z,50.07
2024-03-06T03:53:30.588Z,48.51
2024-03-06T03:54:30.535Z,48.58
2024-03-06T03:55:30.543Z,50.01
2024-03-06T03:56:30.527Z,50.65
2024-03-06T03:57:30.841Z,50.25
2024-03-06T03:58:30.592Z,47.98
2024-03-06T03:59:30.502Z,47.94
2024-03-06T04:00:30.501Z,50.36
2024-03-06T04:01:30.504Z,54.95
2024-03-06T04:02:30.486Z,50.52
2024-03-06T04:03:30.554Z,57.22
2024-03-06T04:04:30.499Z,51.78
2024-03-06T04:05:30.462Z,49.85
2024-03-06T04:06:30.473Z,49.71
2024-03-06T04:07:30.452Z,51.55
2024-03-06T04:08:30.454Z,51.62
2024-03-06T04:09:30.477Z,50.75
2024-03-06T04:10:30.444Z,50.24
2024-03-06T04:11:30.537Z,50.49
2024-03-06T04:12:30.420Z,64.46
2024-03-06T04:13:30.439Z,52.80
2024-03-06T04:14:30.402Z,50.96
2024-03-06T04:15:30.413Z,51.95
2024-03-06T04:16:33.254Z,50.31
2024-03-06T04:17:30.438Z,49.87
2024-03-06T04:18:30.420Z,49.86
2024-03-06T04:19:30.407Z,48.96
2024-03-06T04:20:30.381Z,50.81
2024-03-06T04:21:30.364Z,52.32
2024-03-06T04:22:30.421Z,50.04
2024-03-06T04:23:30.359Z,48.58
2024-03-06T04:24:30.348Z,52.19
2024-03-06T04:25:30.404Z,50.57
2024-03-06T04:26:30.361Z,49.88
2024-03-06T04:27:30.321Z,50.38
2024-03-06T04:28:30.318Z,50.71
2024-03-06T04:29:30.312Z,53.12
2024-03-06T04:30:30.373Z,52.48
2024-03-06T04:31:30.297Z,50.13
2024-03-06T04:32:30.345Z,48.92
2024-03-06T04:33:30.323Z,50.06
2024-03-06T04:34:30.267Z,48.70
2024-03-06T04:35:30.348Z,49.75
2024-03-06T04:36:30.379Z,49.29
2024-03-06T04:37:30.251Z,49.04
2024-03-06T04:38:30.261Z,47.80
2024-03-06T04:39:30.293Z,49.03
2024-03-06T04:40:31.122Z,49.86
2024-03-06T04:41:30.217Z,50.59
2024-03-06T04:42:30.226Z,49.81
2024-03-06T04:43:30.222Z,49.30
2024-03-06T04:44:30.210Z,49.74
2024-03-06T04:45:30.949Z,50.54
2024-03-06T04:46:30.186Z,50.09
2024-03-06T04:47:30.603Z,50.35
2024-03-06T04:48:30.172Z,50.47
2024-03-06T04:49:30.170Z,50.11
2024-03-06T04:50:30.193Z,48.59
2024-03-06T04:51:30.181Z,50.72
2024-03-06T04:52:30.171Z,50.98
2024-03-06T04:53:30.145Z,49.59
2024-03-06T04:54:30.127Z,49.70
2024-03-06T04:55:30.158Z,49.69
2024-03-06T04:56:30.113Z,48.91
2024-03-06T04:57:30.116Z,48.05
2024-03-06T04:58:30.669Z,48.20
2024-03-06T04:59:30.094Z,48.08
2024-03-06T05:00:30.107Z,47.99
2024-03-06T05:01:30.206Z,47.31
2024-03-06T05:02:30.087Z,52.43
2024-03-06T05:59:33.680Z,51.05
2024-03-06T06:00:33.749Z,51.80
2024-03-06T06:01:34.234Z,52.49
2024-03-06T06:02:33.669Z,53.07
2024-03-06T06:03:33.657Z,52.87
2024-03-06T06:04:38.491Z,52.07
2024-03-06T06:05:34.675Z,52.19
2024-03-06T06:06:33.710Z,49.26
2024-03-06T06:07:33.630Z,48.84
2024-03-06T06:08:33.680Z,50.80
2024-03-06T06:09:33.615Z,50.87
2024-03-06T06:10:33.650Z,52.48
2024-03-06T06:11:33.671Z,50.98
2024-03-06T06:12:33.602Z,50.26
2024-03-06T06:13:33.596Z,51.63
2024-03-06T06:14:33.659Z,56.12
2024-03-06T06:15:33.588Z,51.67
2024-03-06T06:16:33.917Z,55.73
2024-03-06T06:17:33.644Z,52.74
2024-03-06T06:18:33.634Z,54.88
2024-03-06T06:19:33.545Z,52.89
2024-03-06T06:20:33.592Z,51.09
2024-03-06T06:21:33.560Z,51.77
2024-03-06T06:22:33.523Z,52.43
2024-03-06T06:23:33.550Z,53.27
2024-03-06T06:24:33.512Z,52.74
2024-03-06T06:25:33.509Z,53.08
2024-03-06T06:26:33.738Z,51.62
2024-03-06T06:27:33.495Z,52.33
2024-03-06T06:28:33.489Z,51.73
2024-03-06T06:29:33.562Z,51.62
2024-03-06T06:30:33.535Z,55.27
2024-03-06T06:31:33.499Z,58.23
2024-03-06T06:32:33.634Z,52.13
2024-03-06T06:33:33.516Z,53.01
2024-03-06T06:34:33.445Z,53.52
2024-03-06T06:35:33.462Z,52.68
2024-03-06T06:36:33.500Z,52.04
2024-03-06T06:37:33.574Z,51.50
2024-03-06T06:38:33.483Z,51.81
2024-03-06T06:39:33.426Z,52.78
2024-03-06T06:40:33.414Z,51.28
2024-03-06T06:41:33.513Z,52.47
2024-03-06T06:42:33.396Z,52.53
2024-03-06T06:43:33.420Z,51.09
2024-03-06T06:44:33.457Z,50.77
2024-03-06T06:45:33.417Z,50.81
2024-03-06T06:46:33.456Z,51.32
2024-03-06T06:47:33.420Z,51.58
2024-03-06T06:48:33.400Z,51.98
2024-03-06T06:49:33.391Z,51.42
2024-03-06T06:50:33.383Z,50.54
2024-03-06T06:51:33.357Z,49.37
2024-03-06T06:52:33.558Z,50.41
2024-03-06T06:53:33.330Z,52.94
2024-03-06T06:54:33.319Z,50.50
2024-03-06T06:55:33.331Z,50.43
2024-03-06T06:56:33.411Z,49.92
2024-03-06T06:57:33.301Z,49.67
2024-03-06T06:58:33.294Z,49.92
2024-03-06T06:59:33.445Z,50.31
2024-03-06T07:00:33.331Z,50.08
2024-03-06T07:01:33.351Z,49.72
2024-03-06T07:02:33.379Z,50.05
2024-03-06T07:03:33.259Z,51.27
2024-03-06T07:04:33.333Z,50.79
2024-03-06T07:05:33.261Z,50.89
2024-03-06T07:06:33.271Z,49.84
2024-03-06T07:07:33.233Z,51.92
2024-03-06T07:08:33.452Z,48.39
2024-03-06T07:09:33.219Z,48.74
2024-03-06T07:10:33.217Z,49.22
2024-03-06T07:11:33.270Z,47.94
2024-03-06T07:12:33.204Z,48.74
2024-03-06T07:13:33.298Z,49.10
2024-03-06T07:14:33.292Z,49.29
2024-03-06T07:15:33.177Z,47.99
2024-03-06T07:16:33.197Z,47.42
2024-03-06T07:17:33.266Z,47.59
2024-03-06T07:18:33.279Z,49.77
2024-03-06T07:19:33.246Z,48.26
2024-03-06T07:20:33.202Z,47.31
2024-03-06T07:21:33.162Z,48.16
2024-03-06T07:22:33.146Z,46.85
2024-03-06T07:23:33.254Z,47.16
2024-03-06T07:24:34.972Z,48.17
2024-03-06T07:25:33.145Z,47.58
2024-03-06T07:26:33.210Z,47.03
2024-03-06T07:27:33.105Z,46.65
2024-03-06T07:28:33.100Z,47.02
2024-03-06T07:29:33.169Z,50.38
2024-03-06T07:30:33.080Z,58.88
2024-03-06T07:31:33.131Z,48.54
2024-03-06T07:32:33.137Z,47.92
2024-03-06T07:33:33.093Z,48.51
2024-03-06T07:34:33.104Z,46.90
2024-03-06T07:35:33.122Z,47.63
2024-03-06T07:36:33.061Z,47.88
2024-03-06T07:37:33.228Z,47.37
2024-03-06T07:38:33.062Z,47.10
2024-03-06T07:39:33.077Z,46.92
2024-03-06T07:40:33.014Z,48.21
2024-03-06T07:41:33.096Z,53.26
2024-03-06T07:42:33.298Z,50.15
2024-03-06T07:43:33.029Z,49.70
2024-03-06T07:44:33.059Z,48.48
2024-03-06T07:45:33.003Z,49.73
2024-03-06T07:46:33.009Z,50.26
2024-03-06T07:47:33.019Z,49.02
2024-03-06T07:48:33.009Z,49.40
2024-03-06T07:49:33.115Z,48.62
2024-03-06T07:50:33.023Z,54.42
2024-03-06T07:51:32.960Z,53.09
2024-03-06T07:52:33.033Z,48.55
2024-03-06T07:53:33.042Z,47.42
2024-03-06T07:54:32.920Z,47.48
2024-03-06T07:55:32.928Z,47.30
2024-03-06T07:56:33.029Z,48.73
2024-03-06T07:57:32.940Z,49.10
2024-03-06T07:58:32.895Z,46.12
2024-03-06T07:59:32.907Z,46.11
2024-03-06T08:00:32.888Z,46.82
2024-03-06T08:01:32.944Z,46.13
2024-03-06T08:02:32.951Z,45.35
2024-03-06T08:03:32.870Z,44.46
2024-03-06T08:04:32.854Z,43.75
2024-03-06T08:05:32.974Z,43.91
2024-03-06T08:06:32.903Z,44.00
2024-03-06T08:07:32.865Z,43.81
2024-03-06T08:08:32.884Z,44.08
2024-03-06T08:09:32.818Z,43.49
2024-03-06T08:10:32.825Z,43.39
2024-03-06T08:11:32.856Z,43.14
2024-03-06T08:12:32.828Z,43.13
2024-03-06T08:13:32.801Z,43.84
2024-03-06T08:14:32.813Z,47.17
2024-03-06T08:15:32.787Z,43.70
2024-03-06T08:16:36.063Z,46.79
2024-03-06T08:17:32.967Z,45.09
2024-03-06T08:18:32.763Z,43.24
2024-03-06T08:19:32.751Z,43.22
2024-03-06T08:20:32.758Z,45.78
2024-03-06T08:21:32.760Z,54.28
2024-03-06T08:22:32.853Z,48.06
2024-03-06T08:23:32.771Z,45.29
2024-03-06T08:24:32.719Z,44.40
2024-03-06T08:25:32.715Z,47.67
2024-03-06T08:26:32.795Z,46.37
2024-03-06T08:27:32.747Z,44.58
2024-03-06T08:28:32.691Z,45.73
2024-03-06T08:29:32.764Z,45.18
2024-03-06T08:30:32.695Z,46.00
2024-03-06T08:31:32.686Z,45.64
2024-03-06T08:32:32.974Z,45.25
2024-03-06T08:33:32.760Z,45.46
2024-03-06T08:34:32.679Z,44.64
2024-03-06T08:35:32.803Z,44.75
2024-03-06T08:36:32.725Z,44.82
2024-03-06T08:37:32.842Z,44.63
2024-03-06T08:38:32.784Z,44.73
2024-03-06T08:39:32.641Z,44.47
2024-03-06T08:40:32.615Z,43.94
2024-03-06T08:41:32.661Z,44.62
2024-03-06T08:42:32.673Z,44.06
2024-03-06T08:43:32.596Z,44.38
2024-03-06T08:44:32.624Z,44.52
2024-03-06T08:45:32.649Z,44.24
2024-03-06T08:46:32.570Z,44.77
2024-03-06T08:47:32.769Z,44.20
2024-03-06T08:48:32.609Z,44.62
2024-03-06T08:49:32.550Z,45.57
2024-03-06T08:50:32.584Z,44.61
2024-03-06T08:51:32.583Z,44.93
2024-03-06T08:52:32.564Z,52.87
2024-03-06T08:53:32.578Z,51.64
2024-03-06T08:54:32.653Z,45.61
2024-03-06T08:55:32.518Z,45.19
2024-03-06T08:56:32.548Z,44.39
2024-03-06T08:57:32.586Z,44.12
2024-03-06T08:58:32.522Z,44.67
2024-03-06T08:59:32.531Z,44.17
2024-03-06T09:00:32.490Z,44.09
2024-03-06T09:01:32.719Z,43.73
2024-03-06T09:02:32.512Z,46.20
2024-03-06T09:03:32.644Z,44.75
2024-03-06T09:04:32.469Z,45.62
2024-03-06T09:05:32.549Z,43.92
2024-03-06T09:06:32.450Z,44.40
2024-03-06T09:07:32.429Z,44.83
2024-03-06T09:08:32.568Z,47.84
2024-03-06T09:09:32.412Z,44.48
2024-03-06T09:10:32.465Z,44.33
2024-03-06T09:11:32.463Z,45.41
2024-03-06T09:12:32.394Z,44.15
2024-03-06T09:13:32.418Z,43.66
2024-03-06T09:14:32.426Z,43.29
2024-03-06T09:15:32.411Z,47.52
2024-03-06T09:16:32.424Z,43.91
2024-03-06T09:17:32.523Z,43.61
2024-03-06T09:18:32.409Z,43.89
2024-03-06T09:19:32.353Z,43.63
2024-03-06T09:20:32.400Z,43.82
2024-03-06T09:21:32.340Z,43.69
2024-03-06T09:22:32.376Z,43.91
2024-03-06T09:23:32.401Z,44.06
2024-03-06T09:24:32.936Z,43.78
2024-03-06T09:25:32.390Z,44.06
2024-03-06T09:26:32.411Z,44.12
2024-03-06T09:27:32.300Z,43.47
2024-03-06T09:28:32.334Z,43.77
2024-03-06T09:29:32.426Z,45.68
2024-03-06T09:30:32.316Z,44.18
2024-03-06T09:31:32.265Z,43.69
2024-03-06T09:32:32.918Z,43.90
2024-03-06T09:33:32.415Z,45.28
2024-03-06T09:34:32.259Z,48.45
2024-03-06T09:35:32.277Z,52.81
2024-03-06T09:36:32.241Z,48.93
2024-03-06T09:37:32.233Z,45.45
2024-03-06T09:38:32.344Z,44.05
2024-03-06T09:39:32.246Z,46.99
2024-03-06T09:40:32.229Z,46.10
2024-03-06T09:41:32.286Z,46.49
2024-03-06T09:42:32.243Z,48.67
2024-03-06T09:43:32.475Z,44.46
2024-03-06T09:44:32.264Z,43.69
2024-03-06T09:45:32.272Z,44.11
2024-03-06T09:46:32.170Z,45.27
2024-03-06T09:47:32.256Z,44.61
2024-03-06T09:48:32.205Z,46.38
2024-03-06T09:49:32.140Z,51.42
2024-03-06T09:50:32.292Z,48.99
2024-03-06T09:51:32.438Z,43.47
2024-03-06T09:52:32.126Z,43.93
2024-03-06T09:53:32.215Z,52.20
2024-03-06T09:54:32.121Z,54.39
2024-03-06T09:55:32.111Z,47.49
2024-03-06T09:56:32.150Z,45.53
2024-03-06T09:57:32.107Z,45.16
2024-03-06T09:58:32.159Z,44.41
2024-03-06T09:59:32.123Z,43.90
2024-03-06T10:00:32.090Z,44.43
2024-03-06T10:01:32.085Z,43.92
2024-03-06T10:02:32.101Z,44.53
2024-03-06T10:03:32.101Z,47.19
2024-03-06T10:04:32.049Z,44.92
2024-03-06T10:05:32.430Z,44.52
2024-03-06T10:06:32.048Z,45.45
2024-03-06T10:07:32.027Z,44.65
2024-03-06T10:08:32.217Z,45.60
2024-03-06T10:09:32.062Z,45.33
2024-03-06T10:10:32.058Z,44.71
2024-03-06T10:11:32.099Z,44.39
2024-03-06T10:12:32.307Z,44.45
2024-03-06T10:13:32.029Z,43.96
2024-03-06T10:14:32.099Z,44.87
2024-03-06T10:15:32.011Z,49.17
2024-03-06T10:16:31.965Z,44.38
2024-03-06T10:17:32.128Z,45.79
2024-03-06T10:18:32.031Z,44.36
2024-03-06T10:19:31.958Z,44.16
2024-03-06T10:20:31.972Z,44.21
2024-03-06T10:21:31.969Z,44.11
2024-03-06T10:22:31.935Z,44.84
2024-03-06T10:23:32.023Z,49.79
2024-03-06T10:24:31.939Z,49.58
2024-03-06T10:25:31.942Z,46.90
2024-03-06T10:26:31.976Z,45.76
2024-03-06T10:27:31.890Z,45.33
2024-03-06T10:28:31.933Z,44.97
2024-03-06T10:29:31.929Z,44.34
2024-03-06T10:30:31.947Z,44.46
2024-03-06T10:31:31.877Z,44.93
2024-03-06T10:32:32.142Z,44.61
2024-03-06T10:33:31.912Z,51.28
2024-03-06T10:34:31.848Z,51.97
2024-03-06T10:35:31.946Z,44.86
2024-03-06T10:36:32.057Z,43.71
2024-03-06T10:37:31.834Z,43.52
2024-03-06T10:38:31.897Z,43.65
2024-03-06T10:39:31.822Z,47.47
2024-03-06T10:40:31.829Z,44.21
2024-03-06T10:41:31.831Z,44.01
2024-03-06T10:42:31.826Z,45.87
2024-03-06T10:43:31.839Z,54.27
2024-03-06T10:44:31.842Z,44.51
2024-03-06T10:45:31.784Z,44.03
2024-03-06T10:46:31.849Z,43.40
2024-03-06T10:47:38.952Z,43.80
2024-03-06T10:48:32.067Z,44.58
2024-03-06T10:49:31.754Z,43.32
2024-03-06T10:50:31.795Z,43.03
2024-03-06T10:51:31.752Z,42.79
2024-03-06T10:52:31.740Z,43.54
2024-03-06T10:53:32.011Z,43.27
2024-03-06T10:54:31.738Z,43.87
2024-03-06T10:55:31.719Z,42.86
2024-03-06T10:56:31.790Z,44.97
2024-03-06T10:57:31.725Z,44.36
2024-03-06T10:58:31.749Z,42.93
2024-03-06T10:59:32.010Z,43.00
2024-03-06T11:00:31.713Z,43.94
2024-03-06T11:01:31.770Z,44.68
2024-03-06T11:02:31.860Z,44.20
2024-03-06T11:03:31.741Z,43.93
2024-03-06T11:04:31.655Z,44.74
2024-03-06T11:05:31.662Z,43.24
2024-03-06T11:06:31.679Z,42.26
2024-03-06T11:07:31.657Z,48.79
2024-03-06T11:08:31.677Z,43.38
2024-03-06T11:09:31.623Z,50.70
2024-03-06T11:10:31.652Z,43.56
2024-03-06T11:12:31.597Z,42.71
2024-03-06T11:13:31.693Z,49.30
2024-03-06T11:14:31.655Z,43.59
2024-03-06T11:15:31.573Z,42.91
2024-03-06T11:16:31.568Z,42.76
2024-03-06T11:17:31.714Z,42.29
2024-03-06T11:18:31.750Z,42.25
2024-03-06T11:19:31.571Z,42.53
2024-03-06T11:20:31.568Z,41.58
2024-03-06T11:21:31.550Z,48.57
2024-03-06T11:22:31.522Z,42.65
2024-03-06T11:23:31.618Z,41.60
2024-03-06T11:24:31.513Z,42.37
2024-03-06T11:25:31.506Z,42.22
2024-03-06T11:26:31.578Z,42.76
2024-03-06T11:27:31.624Z,42.17
2024-03-06T11:28:31.521Z,42.23
2024-03-06T11:29:31.585Z,43.74
2024-03-06T11:30:31.551Z,42.22
2024-03-06T11:31:31.456Z,42.14
2024-03-06T11:32:31.570Z,45.97
2024-03-06T11:33:32.070Z,41.79
2024-03-06T11:34:31.635Z,42.37
2024-03-06T11:35:31.467Z,42.73
2024-03-06T11:36:31.476Z,41.80
2024-03-06T11:37:31.416Z,41.09
2024-03-06T11:38:31.773Z,41.14
2024-03-06T11:39:31.491Z,42.82
2024-03-06T11:40:31.399Z,41.81
2024-03-06T11:41:31.445Z,41.40
2024-03-06T11:42:31.433Z,40.08
2024-03-06T11:43:31.401Z,44.79
2024-03-06T11:44:31.380Z,41.90
2024-03-06T11:45:31.668Z,40.77
2024-03-06T11:46:31.344Z,39.93
2024-03-06T11:47:31.451Z,39.40
2024-03-06T11:48:31.399Z,41.81
2024-03-06T11:49:31.470Z,47.83
2024-03-06T11:50:31.455Z,41.15
2024-03-06T11:51:31.325Z,49.64
2024-03-06T11:52:31.330Z,56.68
2024-03-06T11:53:31.347Z,47.51
2024-03-06T11:54:31.307Z,43.73
2024-03-06T11:55:31.280Z,42.97
2024-03-06T11:56:31.329Z,48.92
2024-03-06T11:57:31.280Z,51.11
2024-03-06T11:58:31.463Z,43.00
2024-03-06T11:59:31.354Z,42.44
2024-03-06T12:00:31.251Z,41.74
2024-03-06T12:01:31.321Z,41.40
2024-03-06T12:02:31.276Z,41.82
2024-03-06T12:03:31.252Z,42.87
2024-03-06T12:04:31.239Z,42.49
2024-03-06T12:05:31.246Z,45.52
2024-03-06T12:06:31.277Z,41.21
2024-03-06T12:07:31.231Z,41.98
2024-03-06T12:08:31.460Z,41.53
2024-03-06T12:09:31.184Z,42.33
2024-03-06T12:10:31.180Z,43.28
2024-03-06T12:11:31.236Z,42.37
2024-03-06T12:12:31.364Z,42.11
2024-03-06T12:13:31.487Z,41.48
2024-03-06T12:14:31.231Z,41.54
2024-03-06T12:15:31.155Z,41.56
2024-03-06T12:16:31.156Z,41.98
2024-03-06T12:17:31.209Z,41.37
2024-03-06T12:18:31.159Z,45.09
2024-03-06T12:19:31.132Z,42.27
2024-03-06T12:20:31.154Z,43.82
2024-03-06T12:21:31.118Z,43.86
2024-03-06T12:22:31.942Z,43.73
2024-03-06T12:23:31.299Z,43.26
2024-03-06T12:24:31.093Z,43.07
2024-03-06T12:25:31.083Z,44.08
2024-03-06T12:26:31.084Z,43.84
2024-03-06T12:27:31.071Z,43.52
2024-03-06T12:28:31.123Z,42.63
2024-03-06T12:29:31.169Z,43.03
2024-03-06T12:30:31.048Z,44.04
2024-03-06T12:31:31.046Z,40.03
2024-03-06T12:32:31.686Z,40.76
2024-03-06T12:33:31.090Z,41.32
2024-03-06T12:34:31.064Z,40.56
2024-03-06T12:35:31.447Z,40.17
2024-03-06T12:36:31.914Z,40.87
2024-03-06T12:37:31.906Z,41.37
2024-03-06T12:38:31.125Z,41.35
2024-03-06T12:39:31.014Z,41.13
2024-03-06T12:40:31.150Z,43.40
2024-03-06T12:41:31.061Z,40.87
2024-03-06T12:42:30.962Z,40.83
2024-03-06T12:43:31.043Z,40.55
2024-03-06T12:44:31.006Z,41.32
2024-03-06T12:45:30.939Z,40.88
2024-03-06T12:46:30.940Z,41.80
2024-03-06T12:47:31.040Z,47.78
2024-03-06T12:48:31.102Z,45.67
2024-03-06T12:49:30.950Z,46.50
2024-03-06T12:50:30.926Z,49.79
2024-03-06T12:51:30.926Z,46.23
2024-03-06T12:52:31.004Z,43.04
2024-03-06T12:53:30.935Z,44.86
2024-03-06T12:54:30.948Z,39.82
2024-03-06T12:55:30.869Z,40.71
2024-03-06T12:56:30.882Z,41.78
2024-03-06T12:57:30.862Z,43.06
2024-03-06T12:58:30.870Z,40.53
2024-03-06T12:59:30.898Z,40.05
2024-03-06T13:00:30.833Z,39.28
2024-03-06T13:01:30.847Z,51.02
2024-03-06T13:02:30.868Z,40.24
2024-03-06T13:03:30.862Z,41.04
2024-03-06T13:04:30.805Z,41.21
2024-03-06T13:05:30.844Z,43.57
2024-03-06T13:06:30.823Z,43.30
2024-03-06T13:07:30.843Z,43.21
2024-03-06T13:08:30.866Z,41.43
2024-03-06T13:09:30.776Z,41.10
2024-03-06T13:10:31.014Z,41.83
2024-03-06T13:11:30.850Z,42.22
2024-03-06T13:12:30.749Z,41.68
2024-03-06T13:13:31.154Z,43.34
2024-03-06T13:14:30.799Z,42.00
2024-03-06T13:15:30.729Z,42.92
2024-03-06T13:16:30.732Z,42.23
2024-03-06T13:17:30.810Z,41.58
2024-03-06T13:18:30.812Z,41.16
2024-03-06T13:19:30.706Z,40.42
2024-03-06T13:20:30.741Z,42.46
2024-03-06T13:21:30.678Z,41.95
2024-03-06T13:22:30.731Z,44.13
2024-03-06T13:23:31.201Z,42.12
2024-03-06T13:24:30.674Z,40.86
2024-03-06T13:25:30.667Z,41.54
2024-03-06T13:26:30.735Z,42.37
2024-03-06T13:27:30.655Z,43.29
2024-03-06T13:28:30.660Z,42.88
2024-03-06T13:29:30.736Z,42.58
2024-03-06T13:30:30.624Z,41.19
2024-03-06T13:31:30.626Z,41.20
2024-03-06T13:32:30.738Z,42.24
2024-03-06T13:33:30.726Z,42.51
2024-03-06T13:34:30.717Z,42.67
2024-03-06T13:35:30.682Z,42.41
2024-03-06T13:36:30.715Z,42.16
2024-03-06T13:37:30.586Z,43.30
2024-03-06T13:38:30.665Z,40.37
2024-03-06T13:39:30.568Z,40.14
2024-03-06T13:40:30.547Z,40.48
2024-03-06T13:41:30.590Z,41.54
2024-03-06T13:42:30.584Z,41.39
2024-03-06T13:43:30.565Z,42.03
2024-03-06T13:44:30.553Z,45.46
2024-03-06T13:45:30.513Z,46.03
2024-03-06T13:46:30.502Z,44.68
2024-03-06T13:47:30.562Z,44.00
2024-03-06T13:48:30.568Z,45.45
2024-03-06T13:49:30.507Z,45.52